sensor_id;sensor_type;location;lat;lon;timestamp;pressure;altitude;pressure_sealevel;temperature;humidity
7802;BME280;3945;48.952;9.506;2023-02-04T00:01:59;99091.88;;;7.51;100.00
7802;BME280;3945;48.952;9.506;2023-02-04T00:04:25;99101.88;;;7.49;100.00
7802;BME280;3945;48.952;9.506;2023-02-04T00:06:53;99095.53;;;7.50;100.00
7802;BME280;3945;48.952;9.506;2023-02-04T00:09:19;99103.28;;;7.51;100.00
7802;BME280;3945;48.952;9.506;2023-02-04T00:11:46;99090.88;;;7.52;100.00
7802;BME280;3945;48.952;9.506;2023-02-04T00:14:12;99108.22;;;7.54;100.00
7802;BME280;3945;48.952;9.506;2023-02-04T00:16:38;99096.63;;;7.55;100.00
7802;BME280;3945;48.952;9.506;2023-02-04T00:19:04;99103.56;;;7.56;100.00
7802;BME280;3945;48.952;9.506;2023-02-04T00:21:31;99106.22;;;7.56;100.00
7802;BME280;3945;48.952;9.506;2023-02-04T00:23:58;99122.28;;;7.55;100.00
7802;BME280;3945;48.952;9.506;2023-02-04T00:26:25;99117.00;;;7.55;100.00
7802;BME280;3945;48.952;9.506;2023-02-04T00:28:51;99108.88;;;7.56;100.00
7802;BME280;3945;48.952;9.506;2023-02-04T00:31:17;99112.69;;;7.54;100.00
7802;BME280;3945;48.952;9.506;2023-02-04T00:33:44;99109.88;;;7.55;100.00
7802;BME280;3945;48.952;9.506;2023-02-04T00:36:10;99106.78;;;7.52;100.00
7802;BME280;3945;48.952;9.506;2023-02-04T00:38:36;99106.78;;;7.52;100.00
7802;BME280;3945;48.952;9.506;2023-02-04T00:41:04;99115.13;;;7.49;100.00
7802;BME280;3945;48.952;9.506;2023-02-04T00:43:31;99116.69;;;7.43;100.00
7802;BME280;3945;48.952;9.506;2023-02-04T00:45:57;99119.31;;;7.43;100.00
7802;BME280;3945;48.952;9.506;2023-02-04T00:48:23;99120.59;;;7.47;100.00
7802;BME280;3945;48.952;9.506;2023-02-04T00:50:49;99125.00;;;7.40;100.00
7802;BME280;3945;48.952;9.506;2023-02-04T00:53:17;99140.09;;;7.39;100.00
7802;BME280;3945;48.952;9.506;2023-02-04T00:55:43;99138.25;;;7.40;100.00
7802;BME280;3945;48.952;9.506;2023-02-04T00:58:11;99133.78;;;7.40;100.00
7802;BME280;3945;48.952;9.506;2023-02-04T01:00:37;99134.38;;;7.42;100.00
7802;BME280;3945;48.952;9.506;2023-02-04T01:03:03;99130.13;;;7.41;100.00
7802;BME280;3945;48.952;9.506;2023-02-04T01:05:29;99137.84;;;7.43;100.00
7802;BME280;3945;48.952;9.506;2023-02-04T01:07:56;99154.16;;;7.40;100.00
7802;BME280;3945;48.952;9.506;2023-02-04T01:10:22;99138.06;;;7.41;100.00
7802;BME280;3945;48.952;9.506;2023-02-04T01:12:48;99144.38;;;7.40;100.00
7802;BME280;3945;48.952;9.506;2023-02-04T01:15:16;99156.41;;;7.43;100.00
7802;BME280;3945;48.952;9.506;2023-02-04T01:17:42;99151.31;;;7.41;100.00
7802;BME280;3945;48.952;9.506;2023-02-04T01:20:09;99160.44;;;7.39;100.00
7802;BME280;3945;48.952;9.506;2023-02-04T01:22:35;99163.91;;;7.39;100.00
7802;BME280;3945;48.952;9.506;2023-02-04T01:25:02;99166.31;;;7.34;100.00
7802;BME280;3945;48.952;9.506;2023-02-04T01:27:28;99173.69;;;7.39;100.00
7802;BME280;3945;48.952;9.506;2023-02-04T01:29:54;99174.88;;;7.36;100.00
7802;BME280;3945;48.952;9.506;2023-02-04T01:32:22;99185.28;;;7.38;100.00
7802;BME280;3945;48.952;9.506;2023-02-04T01:34:48;99178.91;;;7.32;100.00
7802;BME280;3945;48.952;9.506;2023-02-04T01:37:15;99175.63;;;7.30;100.00
7802;BME280;3945;48.952;9.506;2023-02-04T01:39:42;99184.97;;;7.26;100.00
7802;BME280;3945;48.952;9.506;2023-02-04T01:42:08;99185.78;;;7.27;100.00
7802;BME280;3945;48.952;9.506;2023-02-04T01:44:35;99194.28;;;7.22;100.00
7802;BME280;3945;48.952;9.506;2023-02-04T01:47:01;99187.72;;;7.18;100.00
7802;BME280;3945;48.952;9.506;2023-02-04T01:49:29;99186.91;;;7.18;100.00
7802;BME280;3945;48.952;9.506;2023-02-04T01:51:55;99195.28;;;7.21;100.00
7802;BME280;3945;48.952;9.506;2023-02-04T01:54:22;99192.47;;;7.23;100.00
7802;BME280;3945;48.952;9.506;2023-02-04T01:56:48;99196.56;;;7.25;100.00
7802;BME280;3945;48.952;9.506;2023-02-04T01:59:16;99200.41;;;7.23;100.00
7802;BME280;3945;48.952;9.506;2023-02-04T02:01:43;99197.56;;;7.24;100.00
7802;BME280;3945;48.952;9.506;2023-02-04T02:04:11;99197.56;;;7.24;100.00
7802;BME280;3945;48.952;9.506;2023-02-04T02:06:39;99207.97;;;7.26;100.00
7802;BME280;3945;48.952;9.506;2023-02-04T02:09:07;99204.31;;;7.27;100.00
7802;BME280;3945;48.952;9.506;2023-02-04T02:11:33;99191.28;;;7.25;100.00
7802;BME280;3945;48.952;9.506;2023-02-04T02:14:00;99197.75;;;7.23;100.00
7802;BME280;3945;48.952;9.506;2023-02-04T02:16:26;99199.41;;;7.24;100.00
7802;BME280;3945;48.952;9.506;2023-02-04T02:18:52;99203.69;;;7.25;100.00
7802;BME280;3945;48.952;9.506;2023-02-04T02:21:20;99200.47;;;7.29;100.00
7802;BME280;3945;48.952;9.506;2023-02-04T02:23:51;99205.41;;;7.32;100.00
7802;BME280;3945;48.952;9.506;2023-02-04T02:26:18;99201.09;;;7.31;100.00
7802;BME280;3945;48.952;9.506;2023-02-04T02:28:46;99196.81;;;7.30;100.00
7802;BME280;3945;48.952;9.506;2023-02-04T02:31:13;99200.09;;;7.32;100.00
7802;BME280;3945;48.952;9.506;2023-02-04T02:33:39;99198.81;;;7.28;100.00
7802;BME280;3945;48.952;9.506;2023-02-04T02:36:06;99202.28;;;7.29;100.00
7802;BME280;3945;48.952;9.506;2023-02-04T02:38:32;99196.00;;;7.30;100.00
7802;BME280;3945;48.952;9.506;2023-02-04T02:41:00;99206.56;;;7.30;100.00
7802;BME280;3945;48.952;9.506;2023-02-04T02:43:27;99205.75;;;7.29;100.00
7802;BME280;3945;48.952;9.506;2023-02-04T02:45:53;99214.91;;;7.27;100.00
7802;BME280;3945;48.952;9.506;2023-02-04T02:48:21;99212.06;;;7.28;100.00
7802;BME280;3945;48.952;9.506;2023-02-04T02:50:48;99229.97;;;7.26;100.00
7802;BME280;3945;48.952;9.506;2023-02-04T02:53:14;99224.22;;;7.23;100.00
7802;BME280;3945;48.952;9.506;2023-02-04T02:55:42;99227.88;;;7.22;100.00
7802;BME280;3945;48.952;9.506;2023-02-04T02:58:11;99237.63;;;7.21;100.00
7802;BME280;3945;48.952;9.506;2023-02-04T03:00:39;99243.31;;;7.18;100.00
7802;BME280;3945;48.952;9.506;2023-02-04T03:03:06;99254.72;;;7.19;100.00
7802;BME280;3945;48.952;9.506;2023-02-04T03:05:35;99250.25;;;7.19;100.00
7802;BME280;3945;48.952;9.506;2023-02-04T03:08:05;99256.16;;;7.21;99.31
7802;BME280;3945;48.952;9.506;2023-02-04T03:10:31;99251.25;;;7.18;100.00
7802;BME280;3945;48.952;9.506;2023-02-04T03:12:58;99257.56;;;7.17;99.81
7802;BME280;3945;48.952;9.506;2023-02-04T03:15:26;99263.69;;;7.18;100.00
7802;BME280;3945;48.952;9.506;2023-02-04T03:17:52;99265.16;;;7.20;99.96
7802;BME280;3945;48.952;9.506;2023-02-04T03:20:20;99274.91;;;7.20;99.73
7802;BME280;3945;48.952;9.506;2023-02-04T03:22:48;99273.09;;;7.20;98.96
7802;BME280;3945;48.952;9.506;2023-02-04T03:25:15;99281.63;;;7.22;98.75
7802;BME280;3945;48.952;9.506;2023-02-04T03:27:41;99290.22;;;7.24;97.71
7802;BME280;3945;48.952;9.506;2023-02-04T03:30:08;99292.22;;;7.22;98.10
7802;BME280;3945;48.952;9.506;2023-02-04T03:32:35;99286.31;;;7.20;98.30
7802;BME280;3945;48.952;9.506;2023-02-04T03:35:02;99285.69;;;7.18;96.65
7802;BME280;3945;48.952;9.506;2023-02-04T03:37:28;99284.22;;;7.16;96.45
7802;BME280;3945;48.952;9.506;2023-02-04T03:39:54;99290.06;;;7.11;96.73
7802;BME280;3945;48.952;9.506;2023-02-04T03:42:20;99288.16;;;7.05;97.18
7802;BME280;3945;48.952;9.506;2023-02-04T03:44:47;99291.81;;;7.04;96.90
7802;BME280;3945;48.952;9.506;2023-02-04T03:47:13;99292.81;;;7.03;95.64
7802;BME280;3945;48.952;9.506;2023-02-04T03:49:41;99298.28;;;7.01;95.96
7802;BME280;3945;48.952;9.506;2023-02-04T03:52:07;99299.19;;;6.94;96.06
7802;BME280;3945;48.952;9.506;2023-02-04T03:54:33;99296.38;;;6.95;95.36
7802;BME280;3945;48.952;9.506;2023-02-04T03:56:59;99302.84;;;6.93;95.30
7802;BME280;3945;48.952;9.506;2023-02-04T03:59:26;99295.91;;;6.92;94.53
7802;BME280;3945;48.952;9.506;2023-02-04T04:01:52;99313.81;;;6.90;94.86
7802;BME280;3945;48.952;9.506;2023-02-04T04:04:18;99305.22;;;6.88;94.81
7802;BME280;3945;48.952;9.506;2023-02-04T04:06:46;99302.75;;;6.86;94.23
7802;BME280;3945;48.952;9.506;2023-02-04T04:09:12;99304.97;;;6.83;93.96
7802;BME280;3945;48.952;9.506;2023-02-04T04:11:39;99307.31;;;6.78;93.93
7802;BME280;3945;48.952;9.506;2023-02-04T04:14:05;99316.06;;;6.78;93.96
7802;BME280;3945;48.952;9.506;2023-02-04T04:16:31;99320.91;;;6.75;93.73
7802;BME280;3945;48.952;9.506;2023-02-04T04:18:58;99314.34;;;6.71;93.72
7802;BME280;3945;48.952;9.506;2023-02-04T04:21:24;99321.28;;;6.72;94.19
7802;BME280;3945;48.952;9.506;2023-02-04T04:23:51;99323.47;;;6.68;94.12
7802;BME280;3945;48.952;9.506;2023-02-04T04:26:18;99328.75;;;6.68;93.98
7802;BME280;3945;48.952;9.506;2023-02-04T04:28:45;99328.59;;;6.70;94.48
7802;BME280;3945;48.952;9.506;2023-02-04T04:31:11;99339.88;;;6.63;94.52
7802;BME280;3945;48.952;9.506;2023-02-04T04:33:37;99337.59;;;6.60;93.88
7802;BME280;3945;48.952;9.506;2023-02-04T04:36:04;99344.44;;;6.55;94.03
7802;BME280;3945;48.952;9.506;2023-02-04T04:38:30;99337.19;;;6.49;93.86
7802;BME280;3945;48.952;9.506;2023-02-04T04:40:58;99346.31;;;6.46;93.61
7802;BME280;3945;48.952;9.506;2023-02-04T04:43:24;99352.34;;;6.40;94.05
7802;BME280;3945;48.952;9.506;2023-02-04T04:45:51;99359.13;;;6.35;93.60
7802;BME280;3945;48.952;9.506;2023-02-04T04:48:17;99352.56;;;6.31;94.02
7802;BME280;3945;48.952;9.506;2023-02-04T04:50:45;99364.13;;;6.30;93.22
7802;BME280;3945;48.952;9.506;2023-02-04T04:53:11;99360.34;;;6.32;93.21
7802;BME280;3945;48.952;9.506;2023-02-04T04:55:38;99360.94;;;6.34;92.60
7802;BME280;3945;48.952;9.506;2023-02-04T04:58:06;99358.69;;;6.31;92.65
7802;BME280;3945;48.952;9.506;2023-02-04T05:00:32;99361.03;;;6.26;93.10
7802;BME280;3945;48.952;9.506;2023-02-04T05:02:59;99367.50;;;6.23;92.50
7802;BME280;3945;48.952;9.506;2023-02-04T05:05:25;99359.28;;;6.18;92.46
7802;BME280;3945;48.952;9.506;2023-02-04T05:07:52;99367.66;;;6.22;91.85
7802;BME280;3945;48.952;9.506;2023-02-04T05:10:18;99360.13;;;6.19;91.93
7802;BME280;3945;48.952;9.506;2023-02-04T05:12:45;99358.28;;;6.19;91.59
7802;BME280;3945;48.952;9.506;2023-02-04T05:15:13;99353.81;;;6.20;92.03
7802;BME280;3945;48.952;9.506;2023-02-04T05:17:39;99355.44;;;6.21;91.66
7802;BME280;3945;48.952;9.506;2023-02-04T05:20:06;99350.53;;;6.18;92.43
7802;BME280;3945;48.952;9.506;2023-02-04T05:22:32;99357.81;;;6.16;91.91
7802;BME280;3945;48.952;9.506;2023-02-04T05:24:59;99364.63;;;6.10;92.13
7802;BME280;3945;48.952;9.506;2023-02-04T05:27:25;99366.34;;;6.03;92.64
7802;BME280;3945;48.952;9.506;2023-02-04T05:29:51;99376.41;;;6.00;93.06
7802;BME280;3945;48.952;9.506;2023-02-04T05:32:19;99376.94;;;5.95;93.18
7802;BME280;3945;48.952;9.506;2023-02-04T05:34:45;99369.84;;;5.96;90.90
7802;BME280;3945;48.952;9.506;2023-02-04T05:37:11;99373.00;;;5.91;91.81
7802;BME280;3945;48.952;9.506;2023-02-04T05:39:39;99370.72;;;5.88;91.35
7802;BME280;3945;48.952;9.506;2023-02-04T05:42:05;99363.09;;;5.85;90.38
7802;BME280;3945;48.952;9.506;2023-02-04T05:44:32;99356.53;;;5.81;90.38
7802;BME280;3945;48.952;9.506;2023-02-04T05:46:58;99360.50;;;5.77;90.46
7802;BME280;3945;48.952;9.506;2023-02-04T05:49:26;99366.16;;;5.74;90.33
7802;BME280;3945;48.952;9.506;2023-02-04T05:51:52;99366.66;;;5.69;89.61
7802;BME280;3945;48.952;9.506;2023-02-04T05:54:18;99363.56;;;5.66;90.21
7802;BME280;3945;48.952;9.506;2023-02-04T05:56:45;99366.53;;;5.63;89.81
7802;BME280;3945;48.952;9.506;2023-02-04T05:59:11;99380.09;;;5.60;90.10
7802;BME280;3945;48.952;9.506;2023-02-04T06:01:37;99376.97;;;5.56;89.90
7802;BME280;3945;48.952;9.506;2023-02-04T06:04:04;99385.75;;;5.48;90.61
7802;BME280;3945;48.952;9.506;2023-02-04T06:06:31;99404.59;;;5.45;90.30
7802;BME280;3945;48.952;9.506;2023-02-04T06:08:58;99401.94;;;5.45;90.79
7802;BME280;3945;48.952;9.506;2023-02-04T06:11:24;99409.38;;;5.42;90.39
7802;BME280;3945;48.952;9.506;2023-02-04T06:13:50;99404.78;;;5.36;90.33
7802;BME280;3945;48.952;9.506;2023-02-04T06:16:17;99412.41;;;5.31;90.55
7802;BME280;3945;48.952;9.506;2023-02-04T06:18:43;99417.38;;;5.26;90.97
7802;BME280;3945;48.952;9.506;2023-02-04T06:21:09;99424.66;;;5.16;91.35
7802;BME280;3945;48.952;9.506;2023-02-04T06:23:37;99424.97;;;5.13;91.10
7802;BME280;3945;48.952;9.506;2023-02-04T06:26:03;99428.94;;;5.08;91.39
7802;BME280;3945;48.952;9.506;2023-02-04T06:28:30;99430.25;;;5.04;91.83
7802;BME280;3945;48.952;9.506;2023-02-04T06:30:56;99444.63;;;5.02;91.48
7802;BME280;3945;48.952;9.506;2023-02-04T06:33:22;99447.44;;;5.00;91.60
7802;BME280;3945;48.952;9.506;2023-02-04T06:35:49;99442.31;;;4.99;91.60
7802;BME280;3945;48.952;9.506;2023-02-04T06:38:15;99453.22;;;4.96;91.64
7802;BME280;3945;48.952;9.506;2023-02-04T06:40:43;99441.69;;;4.89;91.37
7802;BME280;3945;48.952;9.506;2023-02-04T06:43:09;99446.28;;;4.70;90.82
7802;BME280;3945;48.952;9.506;2023-02-04T06:45:35;99465.25;;;4.58;91.23
7802;BME280;3945;48.952;9.506;2023-02-04T06:48:02;99477.91;;;4.54;91.53
7802;BME280;3945;48.952;9.506;2023-02-04T06:50:28;99483.53;;;4.51;91.89
7802;BME280;3945;48.952;9.506;2023-02-04T06:52:54;99472.00;;;4.52;92.11
7802;BME280;3945;48.952;9.506;2023-02-04T06:55:20;99474.00;;;4.58;92.55
7802;BME280;3945;48.952;9.506;2023-02-04T06:57:48;99469.53;;;4.59;92.64
7802;BME280;3945;48.952;9.506;2023-02-04T07:00:14;99476.31;;;4.53;92.28
7802;BME280;3945;48.952;9.506;2023-02-04T07:02:41;99478.44;;;4.50;92.52
7802;BME280;3945;48.952;9.506;2023-02-04T07:05:08;99488.94;;;4.42;93.11
7802;BME280;3945;48.952;9.506;2023-02-04T07:07:34;99488.47;;;4.38;93.11
7802;BME280;3945;48.952;9.506;2023-02-04T07:10:01;99497.34;;;4.37;93.33
7802;BME280;3945;48.952;9.506;2023-02-04T07:12:27;99500.00;;;4.37;93.21
7802;BME280;3945;48.952;9.506;2023-02-04T07:14:54;99506.25;;;4.36;93.79
7802;BME280;3945;48.952;9.506;2023-02-04T07:17:21;99503.31;;;4.39;93.86
7802;BME280;3945;48.952;9.506;2023-02-04T07:19:48;99514.31;;;4.43;93.77
7802;BME280;3945;48.952;9.506;2023-02-04T07:22:14;99513.66;;;4.49;94.07
7802;BME280;3945;48.952;9.506;2023-02-04T07:24:40;99524.72;;;4.52;94.73
7802;BME280;3945;48.952;9.506;2023-02-04T07:27:07;99525.88;;;4.58;94.32
7802;BME280;3945;48.952;9.506;2023-02-04T07:29:33;99527.38;;;4.60;94.01
7802;BME280;3945;48.952;9.506;2023-02-04T07:32:00;99538.56;;;4.62;94.10
7802;BME280;3945;48.952;9.506;2023-02-04T07:34:27;99534.94;;;4.63;94.39
7802;BME280;3945;48.952;9.506;2023-02-04T07:36:53;99543.69;;;4.64;94.82
7802;BME280;3945;48.952;9.506;2023-02-04T07:39:19;99546.66;;;4.61;94.13
7802;BME280;3945;48.952;9.506;2023-02-04T07:41:46;99544.19;;;4.59;94.25
7802;BME280;3945;48.952;9.506;2023-02-04T07:44:12;99553.22;;;4.57;94.36
7802;BME280;3945;48.952;9.506;2023-02-04T07:46:38;99552.75;;;4.53;94.41
7802;BME280;3945;48.952;9.506;2023-02-04T07:49:06;99554.72;;;4.51;94.53
7802;BME280;3945;48.952;9.506;2023-02-04T07:51:32;99554.19;;;4.48;94.89
7802;BME280;3945;48.952;9.506;2023-02-04T07:53:59;99556.50;;;4.51;95.44
7802;BME280;3945;48.952;9.506;2023-02-04T07:56:25;99556.69;;;4.57;95.04
7802;BME280;3945;48.952;9.506;2023-02-04T07:58:51;99560.31;;;4.64;95.21
7802;BME280;3945;48.952;9.506;2023-02-04T08:01:18;99567.25;;;4.65;95.31
7802;BME280;3945;48.952;9.506;2023-02-04T08:03:44;99573.69;;;4.71;95.91
7802;BME280;3945;48.952;9.506;2023-02-04T08:06:12;99573.19;;;4.76;95.88
7802;BME280;3945;48.952;9.506;2023-02-04T08:08:38;99578.81;;;4.81;95.81
7802;BME280;3945;48.952;9.506;2023-02-04T08:11:04;99582.09;;;4.83;96.27
7802;BME280;3945;48.952;9.506;2023-02-04T08:13:31;99582.91;;;4.83;95.95
7802;BME280;3945;48.952;9.506;2023-02-04T08:15:57;99578.00;;;4.88;96.20
7802;BME280;3945;48.952;9.506;2023-02-04T08:18:23;99589.38;;;4.89;96.18
7802;BME280;3945;48.952;9.506;2023-02-04T08:20:50;99590.00;;;4.91;96.06
7802;BME280;3945;48.952;9.506;2023-02-04T08:23:17;99600.91;;;4.88;96.11
7802;BME280;3945;48.952;9.506;2023-02-04T08:25:44;99603.19;;;4.91;96.18
7802;BME280;3945;48.952;9.506;2023-02-04T08:28:10;99610.66;;;4.95;96.20
7802;BME280;3945;48.952;9.506;2023-02-04T08:30:37;99601.56;;;4.98;96.37
7802;BME280;3945;48.952;9.506;2023-02-04T08:33:03;99607.00;;;5.04;96.85
7802;BME280;3945;48.952;9.506;2023-02-04T08:35:29;99613.63;;;5.08;96.95
7802;BME280;3945;48.952;9.506;2023-02-04T08:37:55;99613.13;;;5.13;97.18
7802;BME280;3945;48.952;9.506;2023-02-04T08:40:23;99618.09;;;5.16;97.28
7802;BME280;3945;48.952;9.506;2023-02-04T08:42:49;99612.13;;;5.22;97.17
7802;BME280;3945;48.952;9.506;2023-02-04T08:45:16;99611.97;;;5.32;96.65
7802;BME280;3945;48.952;9.506;2023-02-04T08:47:42;99615.94;;;5.36;97.24
7802;BME280;3945;48.952;9.506;2023-02-04T08:50:09;99620.69;;;5.40;97.00
7802;BME280;3945;48.952;9.506;2023-02-04T08:52:35;99621.22;;;5.44;96.77
7802;BME280;3945;48.952;9.506;2023-02-04T08:55:02;99624.31;;;5.47;96.45
7802;BME280;3945;48.952;9.506;2023-02-04T08:57:30;99632.59;;;5.53;96.33
7802;BME280;3945;48.952;9.506;2023-02-04T08:59:58;99633.25;;;5.55;96.45
7802;BME280;3945;48.952;9.506;2023-02-04T09:02:24;99629.28;;;5.59;96.25
7802;BME280;3945;48.952;9.506;2023-02-04T09:04:50;99632.41;;;5.62;96.13
7802;BME280;3945;48.952;9.506;2023-02-04T09:07:16;99622.66;;;5.63;96.53
7802;BME280;3945;48.952;9.506;2023-02-04T09:09:43;99637.03;;;5.68;96.56
7802;BME280;3945;48.952;9.506;2023-02-04T09:12:09;99637.34;;;5.73;96.83
7802;BME280;3945;48.952;9.506;2023-02-04T09:14:37;99641.81;;;5.81;96.40
7802;BME280;3945;48.952;9.506;2023-02-04T09:17:03;99642.13;;;5.86;96.09
7802;BME280;3945;48.952;9.506;2023-02-04T09:19:29;99653.38;;;5.88;96.64
7802;BME280;3945;48.952;9.506;2023-02-04T09:21:56;99660.16;;;5.91;95.95
7802;BME280;3945;48.952;9.506;2023-02-04T09:24:22;99669.38;;;5.95;96.97
7802;BME280;3945;48.952;9.506;2023-02-04T09:26:48;99660.94;;;5.99;96.64
7802;BME280;3945;48.952;9.506;2023-02-04T09:29:15;99666.06;;;6.01;96.61
7802;BME280;3945;48.952;9.506;2023-02-04T09:31:43;99661.75;;;6.08;96.58
7802;BME280;3945;48.952;9.506;2023-02-04T09:34:09;99678.41;;;6.16;96.15
7802;BME280;3945;48.952;9.506;2023-02-04T09:36:35;99666.50;;;6.20;93.61
7802;BME280;3945;48.952;9.506;2023-02-04T09:39:03;99666.19;;;6.23;94.25
7802;BME280;3945;48.952;9.506;2023-02-04T09:41:30;99663.84;;;6.28;94.93
7802;BME280;3945;48.952;9.506;2023-02-04T09:43:56;99669.63;;;6.32;94.82
7802;BME280;3945;48.952;9.506;2023-02-04T09:46:24;99674.38;;;6.37;93.69
7802;BME280;3945;48.952;9.506;2023-02-04T09:48:54;99679.81;;;6.43;92.80
7802;BME280;3945;48.952;9.506;2023-02-04T09:51:22;99686.22;;;6.49;93.10
7802;BME280;3945;48.952;9.506;2023-02-04T09:53:50;99673.81;;;6.57;92.51
7802;BME280;3945;48.952;9.506;2023-02-04T09:56:17;99674.94;;;6.63;89.58
7802;BME280;3945;48.952;9.506;2023-02-04T09:58:44;99682.22;;;6.69;88.69
7802;BME280;3945;48.952;9.506;2023-02-04T10:01:11;99680.31;;;6.78;88.36
7802;BME280;3945;48.952;9.506;2023-02-04T10:03:39;99681.13;;;6.86;86.76
7802;BME280;3945;48.952;9.506;2023-02-04T10:06:11;99680.78;;;6.89;85.22
7802;BME280;3945;48.952;9.506;2023-02-04T10:08:38;99687.53;;;6.92;84.40
7802;BME280;3945;48.952;9.506;2023-02-04T10:11:05;99686.19;;;6.96;84.61
7802;BME280;3945;48.952;9.506;2023-02-04T10:13:33;99676.91;;;7.00;82.85
7802;BME280;3945;48.952;9.506;2023-02-04T10:16:01;99674.09;;;7.01;80.83
7802;BME280;3945;48.952;9.506;2023-02-04T10:18:29;99678.72;;;6.99;79.39
7802;BME280;3945;48.952;9.506;2023-02-04T10:20:56;99670.97;;;6.98;80.40
7802;BME280;3945;48.952;9.506;2023-02-04T10:23:27;99675.91;;;7.01;81.47
7802;BME280;3945;48.952;9.506;2023-02-04T10:25:53;99681.50;;;7.06;79.88
7802;BME280;3945;48.952;9.506;2023-02-04T10:28:20;99680.31;;;7.09;79.99
7802;BME280;3945;48.952;9.506;2023-02-04T10:30:46;99680.97;;;7.11;79.71
7802;BME280;3945;48.952;9.506;2023-02-04T10:33:13;99676.16;;;7.14;80.18
7802;BME280;3945;48.952;9.506;2023-02-04T10:35:44;99681.09;;;7.17;79.91
7802;BME280;3945;48.952;9.506;2023-02-04T10:38:11;99685.16;;;7.28;80.40
7802;BME280;3945;48.952;9.506;2023-02-04T10:40:38;99680.63;;;7.36;80.92
7802;BME280;3945;48.952;9.506;2023-02-04T10:43:08;99680.06;;;7.49;79.38
7802;BME280;3945;48.952;9.506;2023-02-04T10:45:36;99685.28;;;7.57;79.17
7802;BME280;3945;48.952;9.506;2023-02-04T10:48:02;99681.38;;;7.68;79.83
7802;BME280;3945;48.952;9.506;2023-02-04T10:50:29;99675.38;;;7.74;78.39
7802;BME280;3945;48.952;9.506;2023-02-04T10:52:56;99671.38;;;7.78;75.43
7802;BME280;3945;48.952;9.506;2023-02-04T10:55:46;99682.50;;;7.73;74.94
7802;BME280;3945;48.952;9.506;2023-02-04T10:58:13;99688.69;;;7.66;76.79
7802;BME280;3945;48.952;9.506;2023-02-04T11:00:42;99684.94;;;7.60;75.64
7802;BME280;3945;48.952;9.506;2023-02-04T11:03:10;99695.53;;;7.60;75.99
7802;BME280;3945;48.952;9.506;2023-02-04T11:05:37;99685.75;;;7.61;77.45
7802;BME280;3945;48.952;9.506;2023-02-04T11:08:15;99685.38;;;7.64;76.11
7802;BME280;3945;48.952;9.506;2023-02-04T11:10:48;99684.69;;;7.70;75.71
7802;BME280;3945;48.952;9.506;2023-02-04T11:13:20;99675.84;;;7.77;76.27
7802;BME280;3945;48.952;9.506;2023-02-04T11:15:47;99679.59;;;7.83;75.22
7802;BME280;3945;48.952;9.506;2023-02-04T11:18:24;99683.00;;;7.92;75.35
7802;BME280;3945;48.952;9.506;2023-02-04T11:20:52;99681.56;;;8.04;75.54
7802;BME280;3945;48.952;9.506;2023-02-04T11:23:29;99692.00;;;8.20;71.96
7802;BME280;3945;48.952;9.506;2023-02-04T11:26:05;99676.31;;;8.33;70.75
7802;BME280;3945;48.952;9.506;2023-02-04T11:28:43;99684.69;;;8.51;71.90
7802;BME280;3945;48.952;9.506;2023-02-04T11:31:22;99676.72;;;8.66;70.83
7802;BME280;3945;48.952;9.506;2023-02-04T11:34:01;99673.75;;;8.90;71.38
7802;BME280;3945;48.952;9.506;2023-02-04T11:36:27;99675.38;;;9.06;70.22
7802;BME280;3945;48.952;9.506;2023-02-04T11:38:54;99675.88;;;9.16;70.32
7802;BME280;3945;48.952;9.506;2023-02-04T11:41:23;99674.03;;;9.17;69.36
7802;BME280;3945;48.952;9.506;2023-02-04T11:43:50;99677.91;;;9.14;68.52
7802;BME280;3945;48.952;9.506;2023-02-04T11:46:18;99677.09;;;9.14;68.34
7802;BME280;3945;48.952;9.506;2023-02-04T11:48:45;99677.09;;;9.14;67.41
7802;BME280;3945;48.952;9.506;2023-02-04T11:51:12;99680.50;;;9.08;67.66
7802;BME280;3945;48.952;9.506;2023-02-04T11:53:39;99685.09;;;8.99;68.67
7802;BME280;3945;48.952;9.506;2023-02-04T11:56:06;99676.13;;;9.00;69.19
7802;BME280;3945;48.952;9.506;2023-02-04T11:58:34;99674.09;;;9.02;69.95
7802;BME280;3945;48.952;9.506;2023-02-04T12:01:03;99673.63;;;9.13;70.22
7802;BME280;3945;48.952;9.506;2023-02-04T12:03:32;99669.63;;;9.24;68.90
7802;BME280;3945;48.952;9.506;2023-02-04T12:05:59;99676.41;;;9.26;68.53
7802;BME280;3945;48.952;9.506;2023-02-04T12:08:28;99682.28;;;9.22;68.35
7802;BME280;3945;48.952;9.506;2023-02-04T12:10:59;99683.41;;;9.13;66.82
7802;BME280;3945;48.952;9.506;2023-02-04T12:13:26;99690.41;;;8.99;66.12
7802;BME280;3945;48.952;9.506;2023-02-04T12:15:59;99686.00;;;9.06;67.50
7802;BME280;3945;48.952;9.506;2023-02-04T12:18:25;99688.41;;;9.22;66.73
7802;BME280;3945;48.952;9.506;2023-02-04T12:20:52;99687.41;;;9.45;65.66
7802;BME280;3945;48.952;9.506;2023-02-04T12:23:19;99682.34;;;9.71;65.49
7802;BME280;3945;48.952;9.506;2023-02-04T12:25:45;99682.34;;;9.99;63.68
7802;BME280;3945;48.952;9.506;2023-02-04T12:28:11;99684.34;;;10.18;63.23
7802;BME280;3945;48.952;9.506;2023-02-04T12:30:38;99681.03;;;10.37;63.46
7802;BME280;3945;48.952;9.506;2023-02-04T12:33:05;99689.00;;;10.37;62.21
7802;BME280;3945;48.952;9.506;2023-02-04T12:35:32;99681.25;;;10.42;62.36
7802;BME280;3945;48.952;9.506;2023-02-04T12:37:59;99682.91;;;10.43;64.42
7802;BME280;3945;48.952;9.506;2023-02-04T12:40:25;99677.16;;;10.46;62.84
7802;BME280;3945;48.952;9.506;2023-02-04T12:42:51;99676.38;;;10.52;62.24
7802;BME280;3945;48.952;9.506;2023-02-04T12:45:18;99673.72;;;10.52;62.55
7802;BME280;3945;48.952;9.506;2023-02-04T12:47:44;99676.75;;;10.43;60.97
7802;BME280;3945;48.952;9.506;2023-02-04T12:50:13;99684.88;;;10.35;61.85
7802;BME280;3945;48.952;9.506;2023-02-04T12:52:40;99684.16;;;10.20;61.77
7802;BME280;3945;48.952;9.506;2023-02-04T12:55:07;99684.25;;;10.05;61.80
7802;BME280;3945;48.952;9.506;2023-02-04T12:57:34;99685.16;;;9.91;63.37
7802;BME280;3945;48.952;9.506;2023-02-04T13:00:00;99680.50;;;9.71;64.06
7802;BME280;3945;48.952;9.506;2023-02-04T13:02:27;99687.09;;;9.54;64.88
7802;BME280;3945;48.952;9.506;2023-02-04T13:04:53;99680.19;;;9.38;65.05
7802;BME280;3945;48.952;9.506;2023-02-04T13:07:21;99685.84;;;9.29;65.63
7802;BME280;3945;48.952;9.506;2023-02-04T13:09:47;99684.31;;;9.20;66.36
7802;BME280;3945;48.952;9.506;2023-02-04T13:12:14;99689.97;;;9.17;65.31
7802;BME280;3945;48.952;9.506;2023-02-04T13:14:40;99688.34;;;9.16;67.00
7802;BME280;3945;48.952;9.506;2023-02-04T13:17:07;99690.56;;;9.12;66.10
7802;BME280;3945;48.952;9.506;2023-02-04T13:19:34;99692.38;;;9.12;66.15
7802;BME280;3945;48.952;9.506;2023-02-04T13:22:00;99691.13;;;9.08;65.86
7802;BME280;3945;48.952;9.506;2023-02-04T13:24:28;99692.44;;;8.97;65.91
7802;BME280;3945;48.952;9.506;2023-02-04T13:26:54;99698.31;;;8.92;66.51
7802;BME280;3945;48.952;9.506;2023-02-04T13:29:21;99698.75;;;8.81;65.76